Time,TemperatureF,DewpointF,PressureIn,WindDirection,WindDirectionDegrees,WindSpeedMPH,WindSpeedGustMPH,Humidity,HourlyPrecipIn,Conditions,Clouds,dailyrainin,SolarRadiationWatts/m^2,SoftwareType,DateUTC
2013-07-12 00:21:00,53.0,46.0,-100.00,WNW,293,2.0,4.0,76,0.00,,,0.00,3.000000,,2013-07-12 08:21:00,
2013-07-12 00:32:00,53.0,46.0,-100.00,WNW,293,2.0,4.0,76,0.00,,,0.00,3.000000,,2013-07-12 08:32:00,
2013-07-12 00:42:00,53.0,46.0,-100.00,WNW,293,2.0,4.0,76,0.00,,,0.00,3.000000,,2013-07-12 08:42:00,
2013-07-12 00:53:00,53.0,46.0,-100.00,WNW,293,2.0,4.0,76,0.00,,,0.00,3.000000,,2013-07-12 08:53:00,
2013-07-12 01:12:00,51.0,45.0,-100.00,West,281,3.0,3.0,81,0.00,,,0.00,0.000000,,2013-07-12 09:12:00,
2013-07-12 01:22:00,51.0,45.0,-100.00,West,281,3.0,3.0,81,0.00,,,0.00,0.000000,,2013-07-12 09:22:00,
2013-07-12 01:32:00,51.0,45.0,-100.00,West,281,3.0,3.0,81,0.00,,,0.00,0.000000,,2013-07-12 09:32:00,
2013-07-12 01:42:00,51.0,45.0,-100.00,West,281,3.0,3.0,81,0.00,,,0.00,0.000000,,2013-07-12 09:42:00,
2013-07-12 01:52:00,51.0,45.0,-100.00,West,281,3.0,3.0,81,0.00,,,0.00,0.000000,,2013-07-12 09:52:00,
2013-07-12 02:22:00,50.0,45.0,-100.00,NW,320,4.0,5.0,82,0.00,,,0.00,0.000000,,2013-07-12 10:22:00,
2013-07-12 02:33:00,50.0,45.0,-100.00,NW,320,4.0,5.0,82,0.00,,,0.00,0.000000,,2013-07-12 10:33:00,
2013-07-12 02:42:00,50.0,45.0,-100.00,NW,320,4.0,5.0,82,0.00,,,0.00,0.000000,,2013-07-12 10:42:00,
2013-07-12 02:52:00,50.0,45.0,-100.00,NW,320,4.0,5.0,82,0.00,,,0.00,0.000000,,2013-07-12 10:52:00,
2013-07-12 03:11:00,49.0,44.0,-100.00,WNW,290,3.0,4.0,84,0.00,,,0.00,0.000000,,2013-07-12 11:11:00,
2013-07-12 03:22:00,49.0,44.0,-100.00,WNW,290,3.0,4.0,84,0.00,,,0.00,0.000000,,2013-07-12 11:22:00,
2013-07-12 03:32:00,49.0,44.0,-100.00,WNW,290,3.0,4.0,84,0.00,,,0.00,0.000000,,2013-07-12 11:32:00,
2013-07-12 03:43:00,49.0,44.0,-100.00,WNW,290,3.0,4.0,84,0.00,,,0.00,0.000000,,2013-07-12 11:43:00,
2013-07-12 03:52:00,49.0,44.0,-100.00,WNW,290,3.0,4.0,84,0.00,,,0.00,0.000000,,2013-07-12 11:52:00,
2013-07-12 04:11:00,49.0,44.0,-100.00,WNW,297,3.0,5.0,84,0.00,,,0.00,0.000000,,2013-07-12 12:11:00,
2013-07-12 04:22:00,49.0,44.0,-100.00,WNW,297,3.0,5.0,84,0.00,,,0.00,0.000000,,2013-07-12 12:22:00,
2013-07-12 04:32:00,49.0,44.0,-100.00,WNW,297,3.0,5.0,84,0.00,,,0.00,0.000000,,2013-07-12 12:32:00,
2013-07-12 04:43:00,49.0,44.0,-100.00,WNW,297,3.0,5.0,84,0.00,,,0.00,0.000000,,2013-07-12 12:43:00,
2013-07-12 04:52:00,49.0,44.0,-100.00,WNW,297,3.0,5.0,84,0.00,,,0.00,0.000000,,2013-07-12 12:52:00,
2013-07-12 05:22:00,50.0,45.0,-100.00,NW,305,3.0,4.0,83,0.00,,,0.00,0.000000,,2013-07-12 13:22:00,
2013-07-12 05:32:00,50.0,45.0,-100.00,NW,305,3.0,4.0,83,0.00,,,0.00,0.000000,,2013-07-12 13:32:00,
2013-07-12 05:43:00,50.0,45.0,-100.00,NW,305,3.0,4.0,83,0.00,,,0.00,0.000000,,2013-07-12 13:43:00,
2013-07-12 05:53:00,50.0,45.0,-100.00,NW,305,3.0,4.0,83,0.00,,,0.00,0.000000,,2013-07-12 13:53:00,
2013-07-12 06:22:00,51.0,46.0,-100.00,NW,305,2.0,3.0,83,0.00,,,0.00,11.000000,,2013-07-12 14:22:00,
2013-07-12 06:32:00,51.0,46.0,-100.00,NW,305,2.0,3.0,83,0.00,,,0.00,11.000000,,2013-07-12 14:32:00,
2013-07-12 06:43:00,51.0,46.0,-100.00,NW,305,2.0,3.0,83,0.00,,,0.00,11.000000,,2013-07-12 14:43:00,
2013-07-12 06:53:00,51.0,46.0,-100.00,NW,305,2.0,3.0,83,0.00,,,0.00,11.000000,,2013-07-12 14:53:00,
2013-07-12 07:11:00,56.0,49.0,-100.00,WNW,295,0.0,2.0,77,0.00,,,-99.99,70.000000,,2013-07-12 15:11:00,
2013-07-12 07:43:00,56.0,49.0,-100.00,WNW,295,0.0,2.0,77,0.00,,,-99.99,70.000000,,2013-07-12 15:43:00,
2013-07-12 08:32:00,64.0,50.0,-100.00,NE,41,1.0,2.0,60,-99.99,,,0.00,180.000000,,2013-07-12 16:32:00,
2013-07-12 08:42:00,64.0,50.0,-100.00,NE,41,1.0,2.0,60,-99.99,,,0.00,180.000000,,2013-07-12 16:42:00,
2013-07-12 08:53:00,64.0,50.0,-100.00,NE,41,1.0,2.0,60,-99.99,,,0.00,180.000000,,2013-07-12 16:53:00,
2013-07-12 09:34:00,66.0,50.0,-100.00,ENE,62,2.0,4.0,56,0.00,,,0.00,318.000000,,2013-07-12 17:34:00,
2013-07-12 09:44:00,66.0,50.0,-100.00,ENE,62,2.0,4.0,56,0.00,,,0.00,318.000000,,2013-07-12 17:44:00,
2013-07-12 09:52:00,66.0,50.0,-100.00,ENE,62,2.0,4.0,56,0.00,,,0.00,318.000000,,2013-07-12 17:52:00,
2013-07-12 10:34:00,68.0,49.0,-100.00,SE,134,3.0,5.0,50,0.00,,,0.00,465.000000,,2013-07-12 18:34:00,
2013-07-12 10:44:00,68.0,49.0,-100.00,SE,134,3.0,5.0,50,0.00,,,0.00,465.000000,,2013-07-12 18:44:00,
2013-07-12 10:53:00,68.0,49.0,-100.00,SE,134,3.0,5.0,50,0.00,,,0.00,465.000000,,2013-07-12 18:53:00,
2013-07-12 11:44:00,70.0,50.0,-100.00,ENE,76,3.0,6.0,50,0.00,,,0.00,606.000000,,2013-07-12 19:44:00,
2013-07-12 11:53:00,70.0,50.0,-100.00,ENE,76,3.0,6.0,50,0.00,,,0.00,606.000000,,2013-07-12 19:53:00,
2013-07-12 12:22:00,72.0,49.0,-100.00,SSE,157,4.0,7.0,45,0.00,,,0.00,728.000000,,2013-07-12 20:22:00,
2013-07-12 12:33:00,72.0,49.0,-100.00,SSE,157,4.0,7.0,45,0.00,,,0.00,728.000000,,2013-07-12 20:33:00,
2013-07-12 12:43:00,72.0,49.0,-100.00,SSE,157,4.0,7.0,45,0.00,,,0.00,728.000000,,2013-07-12 20:43:00,
2013-07-12 12:53:00,72.0,49.0,-100.00,SSE,157,4.0,7.0,45,0.00,,,0.00,728.000000,,2013-07-12 20:53:00,
2013-07-12 13:14:00,73.0,49.0,-100.00,SSE,152,4.0,9.0,43,0.00,,,0.00,826.000000,,2013-07-12 21:14:00,
2013-07-12 13:24:00,73.0,49.0,-100.00,SSE,152,4.0,9.0,43,0.00,,,0.00,826.000000,,2013-07-12 21:24:00,
2013-07-12 13:33:00,73.0,49.0,-100.00,SSE,152,4.0,9.0,43,0.00,,,0.00,826.000000,,2013-07-12 21:33:00,
2013-07-12 13:43:00,73.0,49.0,-100.00,SSE,152,4.0,9.0,43,0.00,,,0.00,826.000000,,2013-07-12 21:43:00,
2013-07-12 13:53:00,73.0,49.0,-100.00,SSE,152,4.0,9.0,43,0.00,,,0.00,826.000000,,2013-07-12 21:53:00,
2013-07-12 14:22:00,74.0,49.0,-100.00,SSE,162,6.0,9.0,42,0.00,,,0.00,898.000000,,2013-07-12 22:22:00,
2013-07-12 14:33:00,74.0,49.0,-100.00,SSE,162,6.0,9.0,42,0.00,,,0.00,898.000000,,2013-07-12 22:33:00,
2013-07-12 14:43:00,74.0,49.0,-100.00,SSE,162,6.0,9.0,42,0.00,,,0.00,898.000000,,2013-07-12 22:43:00,
2013-07-12 14:53:00,74.0,49.0,-100.00,SSE,162,6.0,9.0,42,0.00,,,0.00,898.000000,,2013-07-12 22:53:00,
2013-07-12 15:22:00,73.0,49.0,-100.00,South,169,7.0,11.0,43,0.00,,,0.00,912.000000,,2013-07-12 23:22:00,
2013-07-12 15:33:00,73.0,49.0,-100.00,South,169,7.0,11.0,43,0.00,,,0.00,912.000000,,2013-07-12 23:33:00,
2013-07-12 15:42:00,73.0,49.0,-100.00,South,169,7.0,11.0,43,0.00,,,0.00,912.000000,,2013-07-12 23:42:00,
2013-07-12 15:53:00,73.0,49.0,-100.00,South,169,7.0,11.0,43,0.00,,,0.00,912.000000,,2013-07-12 23:53:00,
2013-07-12 16:24:00,73.0,49.0,-100.00,SSE,167,8.0,12.0,43,0.00,,,0.00,790.000000,,2013-07-13 00:24:00,
2013-07-12 16:32:00,73.0,49.0,-100.00,SSE,167,8.0,12.0,43,0.00,,,0.00,790.000000,,2013-07-13 00:32:00,
2013-07-12 16:44:00,73.0,49.0,-100.00,SSE,167,8.0,12.0,43,0.00,,,0.00,790.000000,,2013-07-13 00:44:00,
2013-07-12 16:52:00,73.0,49.0,-100.00,SSE,167,8.0,12.0,43,0.00,,,0.00,790.000000,,2013-07-13 00:52:00,
2013-07-12 17:23:00,73.0,51.0,-100.00,South,182,7.0,12.0,46,0.00,,,0.00,783.000000,,2013-07-13 01:23:00,
2013-07-12 17:44:00,73.0,51.0,-100.00,South,182,7.0,12.0,46,0.00,,,0.00,783.000000,,2013-07-13 01:44:00,
2013-07-12 17:53:00,73.0,51.0,-100.00,South,182,7.0,12.0,46,0.00,,,0.00,783.000000,,2013-07-13 01:53:00,
2013-07-12 18:14:00,68.0,48.0,-100.00,SSW,203,4.0,12.0,48,0.00,,,0.00,516.000000,,2013-07-13 02:14:00,
2013-07-12 18:22:00,68.0,48.0,-100.00,SSW,203,4.0,12.0,48,0.00,,,0.00,516.000000,,2013-07-13 02:22:00,
2013-07-12 18:34:00,68.0,48.0,-100.00,SSW,203,4.0,12.0,48,0.00,,,0.00,516.000000,,2013-07-13 02:34:00,
2013-07-12 19:34:00,69.0,49.0,-100.00,SSE,159,4.0,9.0,49,0.00,,,0.00,349.000000,,2013-07-13 03:34:00,
2013-07-12 19:44:00,69.0,49.0,-100.00,SSE,159,4.0,9.0,49,0.00,,,0.00,349.000000,,2013-07-13 03:44:00,
2013-07-12 19:53:00,69.0,49.0,-100.00,SSE,159,4.0,9.0,49,0.00,,,0.00,349.000000,,2013-07-13 03:53:00,
2013-07-12 20:22:00,69.0,48.0,-100.00,South,169,5.0,9.0,48,0.00,,,0.00,411.000000,,2013-07-13 04:22:00,
2013-07-12 20:32:00,69.0,48.0,-100.00,South,169,5.0,9.0,48,0.00,,,0.00,411.000000,,2013-07-13 04:32:00,
2013-07-12 20:43:00,69.0,48.0,-100.00,South,169,5.0,9.0,48,0.00,,,0.00,411.000000,,2013-07-13 04:43:00,
2013-07-12 20:52:00,69.0,48.0,-100.00,South,169,5.0,9.0,48,0.00,,,0.00,411.000000,,2013-07-13 04:52:00,
2013-07-12 21:42:00,63.0,48.0,-100.00,South,174,3.0,7.0,57,0.00,,,0.00,212.000000,,2013-07-13 05:42:00,
2013-07-12 21:52:00,63.0,48.0,-100.00,South,174,3.0,7.0,57,0.00,,,0.00,212.000000,,2013-07-13 05:52:00,
2013-07-12 22:22:00,61.0,46.0,-100.00,SSW,213,1.0,7.0,57,0.00,,,0.00,92.000000,,2013-07-13 06:22:00,
2013-07-12 22:32:00,61.0,46.0,-100.00,SSW,213,1.0,7.0,57,0.00,,,0.00,92.000000,,2013-07-13 06:32:00,
2013-07-12 22:43:00,61.0,46.0,-100.00,SSW,213,1.0,7.0,57,0.00,,,0.00,92.000000,,2013-07-13 06:43:00,
2013-07-12 22:52:00,61.0,46.0,-100.00,SSW,213,1.0,7.0,57,0.00,,,0.00,92.000000,,2013-07-13 06:52:00,
2013-07-12 23:11:00,55.0,48.0,-100.00,NW,318,2.0,4.0,76,0.00,,,0.00,15.000000,,2013-07-13 07:11:00,
2013-07-12 23:22:00,55.0,48.0,-100.00,NW,318,2.0,4.0,76,0.00,,,0.00,15.000000,,2013-07-13 07:22:00,
2013-07-12 23:33:00,55.0,48.0,-100.00,NW,318,2.0,4.0,76,0.00,,,0.00,15.000000,,2013-07-13 07:33:00,
2013-07-12 23:44:00,55.0,48.0,-100.00,NW,318,2.0,4.0,76,0.00,,,0.00,15.000000,,2013-07-13 07:44:00,
2013-07-12 23:53:00,55.0,48.0,-100.00,NW,318,2.0,4.0,76,0.00,,,0.00,15.000000,,2013-07-13 07:53:00,